Terminal Aerodrome Forecast
Issued by NWS

Current Version | Previous Version | Text Only | Print | Product List | Glossary On
Versions: 1 2 3 4 5 6 7 8 9 10 11 12 13 14 15 16 17 18
000
FTAK31 PANC 251141
TAFADQ
TAF
PADQ 251141Z 2512/2612 25005KT P6SM FEW050 SCT250
     FM251900 25010KT P6SM VCSH SCT040 BKN060
     FM260400 24005KT P6SM FEW060 SCT150=

USA.gov is the U.S. government's official web portal to all federal, state and local government web resources and services.